Flugplatz Pattonville (EDTQ)

Hier findest Du alle Informationen zum Flugplatz Pattonville (EDTQ).

Informationen für Piloten zum Flugplatz Pattonville

Hier findest Du alle relevanten Informationen, die Du als Pilot benötigst, um Pattonville anzufliegen.

Flugplatz: Pattonville ICAO-Code: EDTQ
Frequenz Turm: 123,65 Mhz GAFOR Gebiet: 53
Frequenz Ground: 123,65 Mhz Mogas: nein
Platzrunde: N 0 ft Landegebühr: 5,95 €
Platzhöhe: Sunrise: 06:35 Uhr UTC
Pisten: 10/28 - 672 m x 20 m, ASPH Sunset: 15:41 Uhr UTC

Flugwetter am Flugplatz Pattonville

Die METAR Information stammen aus EDDS (19.39 km entfernt).

METAR Code:
2018/11/15 17:20
EDDS 151720Z 09004KT 9999 SCT008 BKN010 06/05 Q1026 BECMG BKN009

Temperatur: -1,0 °C Niederschlag: - Wind: 8,0 kt
Temperatur (min.): -1,0 °C Luftdruck: 1024 hPa Windrichtung: 30 °
Temperatur (max.): -1,0 °C Luftfeuchtigkeit: 86 % Bewölkung: -

Flugschulen am Flugplatz Pattonville

Am Flugplatz Pattonville gibt es leider keine Flugschule.

Benachbarte Flugplätze und Flugschulen

Es gibt 24 weitere Flugplätze in einem Umkreis von 50 km um den Flugplatz Pattonville.

Jetzt anmelden

Passwort vergessen

Umfrage Archiv

Welche Art von Theorieunterricht würde Dir am ehesten zusagen?

Frontalunterricht
63.3 %
Selbststudium
36.7 %
Stimmen: 270 | Diskussion
Anzeige: Roland Aircraft
Statistik Alle Mitglieder

Aktuell sind 33 Besucher online, davon 1 Mitglied und 32 Gäste.


Mitglieder online:
Bauscher 

Anzeige: VFR Sprechfunk Simulator


Anzeige: Pocket FMS